Terminal Aerodrome Forecast
Issued by NWS

Home | Current Version | Previous Version | Text Only | Print | Product List | Glossary On
Versions: 1 2 3 4 5 6 7 8 9 10 11 12 13 14 15 16 17 18 19 20 21 22 23 24 25
000
FTUS46 KSEW 270300 AAA
TAFSEA
TAF AMD
KSEA 270307Z 2703/2806 21006KT P6SM SCT025 BKN040 OVC060
     FM271500 25005KT P6SM SCT050 BKN100
     FM272100 33005KT P6SM SCT100=

USA.gov is the U.S. government's official web portal to all federal, state and local government web resources and services.